createdAt,value
2023-05-14T00:04:54.404Z,10.25
2023-05-14T00:09:58.886Z,10.16
2023-05-14T00:15:01.790Z,10.07
2023-05-14T00:20:07.333Z,10.03
2023-05-14T00:25:10.310Z,10.02
2023-05-14T00:30:13.302Z,9.99
2023-05-14T00:35:16.390Z,9.89
2023-05-14T00:40:20.046Z,9.79
2023-05-14T00:45:23.196Z,9.71
2023-05-14T00:50:26.608Z,9.68
2023-05-14T00:55:30.974Z,9.61
2023-05-14T01:00:34.325Z,9.52
2023-05-14T01:05:56.475Z,9.43
2023-05-14T01:11:06.623Z,9.36
2023-05-14T01:16:14.364Z,9.33
2023-05-14T01:21:36.084Z,9.32
2023-05-14T01:26:38.932Z,9.26
2023-05-14T01:31:44.515Z,9.15
2023-05-14T01:36:48.915Z,9.07
2023-05-14T01:41:52.737Z,9.01
2023-05-14T01:46:55.972Z,8.95
2023-05-14T01:51:58.856Z,8.84
2023-05-14T01:57:01.669Z,8.71
2023-05-14T02:02:04.707Z,8.58
2023-05-14T02:07:07.589Z,8.53
2023-05-14T02:12:11.844Z,8.48
2023-05-14T02:17:17.706Z,8.43
2023-05-14T02:22:20.529Z,8.36
2023-05-14T02:27:23.338Z,8.33
2023-05-14T02:32:27.967Z,8.33
2023-05-14T02:37:31.539Z,8.33
2023-05-14T02:42:34.939Z,8.33
2023-05-14T02:47:38.361Z,8.33
2023-05-14T02:52:41.517Z,8.37
2023-05-14T02:57:44.409Z,8.39
2023-05-14T03:02:47.295Z,8.41
2023-05-14T03:07:53.777Z,8.41
2023-05-14T03:12:56.677Z,8.43
2023-05-14T03:17:59.570Z,8.49
2023-05-14T03:23:02.776Z,8.55
2023-05-14T03:28:05.594Z,8.62
2023-05-14T03:33:08.533Z,8.70
2023-05-14T03:38:11.367Z,8.81
2023-05-14T03:43:14.172Z,8.97
2023-05-14T03:48:17.167Z,9.18
2023-05-14T03:53:21.038Z,9.35
2023-05-14T03:58:23.870Z,9.47
2023-05-14T04:03:26.795Z,9.55
2023-05-14T04:08:29.899Z,9.63
2023-05-14T04:13:32.734Z,9.75
2023-05-14T04:18:35.936Z,9.90
2023-05-14T04:23:38.780Z,10.21
2023-05-14T04:28:41.768Z,13.06
2023-05-14T04:33:44.619Z,17.19
2023-05-14T04:38:47.384Z,20.69
2023-05-14T04:43:51.021Z,23.43
2023-05-14T04:48:53.864Z,25.78
2023-05-14T04:53:56.732Z,27.83
2023-05-14T04:58:59.568Z,29.36
2023-05-14T05:04:02.460Z,30.58
2023-05-14T05:09:05.456Z,29.31
2023-05-14T05:14:08.311Z,26.60
2023-05-14T05:19:11.291Z,24.27
2023-05-14T05:24:14.268Z,22.60
2023-05-14T05:29:17.101Z,21.45
2023-05-14T05:34:21.247Z,20.69
2023-05-14T05:39:24.084Z,20.04
2023-05-14T05:44:27.104Z,19.47
2023-05-14T05:49:39.450Z,19.08
2023-05-14T05:54:42.287Z,18.92
2023-05-14T05:59:45.127Z,18.87
2023-05-14T06:04:48.173Z,18.74
2023-05-14T06:09:51.417Z,18.67
2023-05-14T06:14:57.854Z,18.78
2023-05-14T06:20:00.841Z,18.91
2023-05-14T06:25:05.715Z,19.05
2023-05-14T06:30:09.307Z,19.62
2023-05-14T06:35:12.152Z,23.04
2023-05-14T06:40:17.918Z,27.25
2023-05-14T06:45:20.811Z,30.31
2023-05-14T06:50:24.071Z,32.84
2023-05-14T06:55:27.371Z,34.73
2023-05-14T07:00:30.674Z,36.10
2023-05-14T07:05:33.671Z,37.22
2023-05-14T07:10:36.554Z,38.00
2023-05-14T07:15:39.414Z,38.60
2023-05-14T07:20:42.398Z,39.11
2023-05-14T07:25:45.452Z,39.44
2023-05-14T07:30:48.325Z,39.40
2023-05-14T07:35:52.465Z,39.40
2023-05-14T07:40:55.414Z,39.27
2023-05-14T07:45:58.280Z,39.07
2023-05-14T07:51:01.234Z,38.82
2023-05-14T07:56:04.265Z,38.58
2023-05-14T08:01:09.241Z,38.23
2023-05-14T08:06:12.299Z,37.67
2023-05-14T08:11:15.576Z,37.20
2023-05-14T08:16:18.561Z,36.58
2023-05-14T08:21:21.690Z,36.12
2023-05-14T08:26:24.460Z,35.77
2023-05-14T08:31:27.348Z,35.20
2023-05-14T08:36:30.395Z,34.75
2023-05-14T08:41:33.297Z,34.56
2023-05-14T08:46:39.250Z,34.20
2023-05-14T08:51:44.630Z,33.77
2023-05-14T08:56:48.190Z,33.35
2023-05-14T09:01:55.059Z,32.93
2023-05-14T09:07:01.619Z,32.39
2023-05-14T09:12:06.279Z,32.13
2023-05-14T09:17:09.181Z,31.98
2023-05-14T09:22:14.553Z,31.65
2023-05-14T09:27:21.439Z,30.82
2023-05-14T09:32:24.461Z,29.79
2023-05-14T09:37:28.744Z,28.93
2023-05-14T09:42:33.131Z,28.08
2023-05-14T09:47:40.149Z,27.62
2023-05-14T09:52:43.113Z,27.39
2023-05-14T09:57:46.028Z,27.26
2023-05-14T10:02:54.061Z,26.88
2023-05-14T10:08:05.722Z,26.64
2023-05-14T10:13:14.944Z,26.55
2023-05-14T10:18:25.437Z,26.58
2023-05-14T10:23:31.568Z,26.52
2023-05-14T10:28:36.940Z,26.42
2023-05-14T10:33:51.081Z,26.36
2023-05-14T10:38:57.815Z,26.41
2023-05-14T10:44:12.078Z,26.49
2023-05-14T10:49:28.910Z,26.53
2023-05-14T10:54:39.518Z,26.37
2023-05-14T10:59:43.658Z,26.36
2023-05-14T11:04:59.904Z,26.47
2023-05-14T11:10:06.065Z,26.63
2023-05-14T11:15:12.465Z,26.61
2023-05-14T11:20:17.432Z,26.71
2023-05-14T11:25:23.174Z,26.82
2023-05-14T11:30:26.691Z,26.61
2023-05-14T11:35:29.708Z,26.47
2023-05-14T11:40:35.045Z,26.26
2023-05-14T11:45:39.506Z,25.78
2023-05-14T11:50:50.295Z,25.22
2023-05-14T11:55:58.832Z,24.82
2023-05-14T12:01:02.347Z,24.52
2023-05-14T12:06:08.277Z,24.36
2023-05-14T12:11:11.828Z,24.29
2023-05-14T12:16:15.002Z,24.28
2023-05-14T12:21:18.020Z,24.23
2023-05-14T12:26:25.949Z,24.04
2023-05-14T12:31:34.338Z,23.88
2023-05-14T12:36:37.559Z,23.71
2023-05-14T12:41:41.042Z,23.65
2023-05-14T12:46:45.010Z,23.73
2023-05-14T12:51:52.634Z,23.83
2023-05-14T12:57:01.482Z,23.81
2023-05-14T13:02:05.748Z,23.62
2023-05-14T13:07:10.124Z,23.75
2023-05-14T13:12:18.063Z,24.08
2023-05-14T13:17:23.579Z,24.28
2023-05-14T13:22:28.838Z,24.38
2023-05-14T13:27:32.509Z,24.56
2023-05-14T13:32:36.747Z,24.70
2023-05-14T13:37:40.354Z,24.64
2023-05-14T13:42:43.763Z,24.50
2023-05-14T13:47:48.726Z,24.45
2023-05-14T13:52:52.852Z,24.44
2023-05-14T13:57:57.452Z,24.48
2023-05-14T14:03:01.032Z,24.47
2023-05-14T14:08:17.801Z,24.35
2023-05-14T14:13:26.297Z,24.24
2023-05-14T14:18:31.487Z,24.24
2023-05-14T14:23:36.840Z,24.36
2023-05-14T14:28:41.166Z,24.67
2023-05-14T14:33:44.160Z,24.97
2023-05-14T14:38:47.167Z,25.19
2023-05-14T14:43:50.808Z,25.34
2023-05-14T14:48:56.077Z,25.36
2023-05-14T14:53:59.022Z,25.26
2023-05-14T14:59:03.573Z,25.16
2023-05-14T15:04:11.906Z,24.98
2023-05-14T15:09:15.318Z,24.93
2023-05-14T15:14:20.321Z,25.07
2023-05-14T15:19:24.592Z,25.20
2023-05-14T15:24:28.442Z,25.14
2023-05-14T15:29:33.281Z,24.99
2023-05-14T15:34:36.436Z,24.94
2023-05-14T15:39:39.522Z,24.84
2023-05-14T15:44:42.767Z,25.11
2023-05-14T15:49:46.658Z,25.65
2023-05-14T15:54:50.106Z,25.49
2023-05-14T15:59:53.222Z,25.14
2023-05-14T16:05:00.772Z,24.83
2023-05-14T16:10:05.422Z,24.59
2023-05-14T16:15:11.693Z,24.42
2023-05-14T16:20:15.423Z,24.31
2023-05-14T16:25:19.305Z,24.17
2023-05-14T16:30:22.827Z,23.93
2023-05-14T16:35:27.402Z,23.68
2023-05-14T16:40:30.761Z,23.41
2023-05-14T16:45:37.954Z,23.14
2023-05-14T16:50:43.286Z,22.90
2023-05-14T16:55:47.156Z,22.65
2023-05-14T17:00:51.046Z,22.45
2023-05-14T17:05:54.848Z,22.28
2023-05-14T17:10:59.868Z,22.16
2023-05-14T17:16:02.114Z,22.16
2023-05-14T17:21:06.050Z,22.21
2023-05-14T17:26:09.034Z,22.20
2023-05-14T17:31:11.954Z,22.12
2023-05-14T17:36:15.202Z,21.99
2023-05-14T17:41:18.160Z,21.81
2023-05-14T17:46:21.847Z,21.61
2023-05-14T17:51:25.371Z,21.39
2023-05-14T17:56:28.360Z,21.14
2023-05-14T18:01:31.727Z,20.88
2023-05-14T18:06:37.947Z,20.63
2023-05-14T18:11:44.360Z,20.37
2023-05-14T18:16:47.598Z,20.12
2023-05-14T18:21:50.895Z,19.86
2023-05-14T18:26:55.207Z,19.61
2023-05-14T18:31:58.618Z,19.36
2023-05-14T18:37:02.915Z,19.12
2023-05-14T18:42:06.833Z,18.90
2023-05-14T18:47:10.047Z,18.68
2023-05-14T18:52:13.573Z,18.45
2023-05-14T18:57:17.519Z,18.24
2023-05-14T19:02:21.248Z,18.04
2023-05-14T19:07:24.871Z,17.84
2023-05-14T19:12:28.214Z,17.67
2023-05-14T19:17:33.593Z,17.50
2023-05-14T19:22:38.151Z,17.35
2023-05-14T19:27:42.413Z,17.17
2023-05-14T19:32:50.621Z,17.07
2023-05-14T19:37:54.743Z,16.98
2023-05-14T19:42:58.161Z,16.88
2023-05-14T19:48:02.932Z,16.79
2023-05-14T19:53:06.119Z,16.66
2023-05-14T19:58:13.062Z,16.51
2023-05-14T20:03:17.840Z,16.37
2023-05-14T20:08:29.131Z,16.20
2023-05-14T20:13:32.858Z,16.04
2023-05-14T20:18:36.873Z,15.89
2023-05-14T20:23:43.230Z,15.74
2023-05-14T20:28:51.440Z,15.61
2023-05-14T20:33:56.974Z,15.50
2023-05-14T20:39:09.279Z,15.41
2023-05-14T20:44:19.159Z,15.33
2023-05-14T20:49:25.132Z,15.26
2023-05-14T20:54:28.899Z,15.22
2023-05-14T20:59:32.745Z,15.17
2023-05-14T21:04:35.688Z,15.11
2023-05-14T21:09:41.602Z,15.04
2023-05-14T21:14:46.913Z,14.96
2023-05-14T21:19:51.084Z,14.86
2023-05-14T21:24:56.037Z,14.78
2023-05-14T21:29:59.307Z,14.70
2023-05-14T21:35:03.264Z,14.63
2023-05-14T21:40:15.170Z,14.57
2023-05-14T21:45:18.117Z,14.51
2023-05-14T21:50:21.097Z,14.44
2023-05-14T21:55:24.183Z,14.39
2023-05-14T22:00:28.132Z,14.34
2023-05-14T22:05:31.426Z,14.30
2023-05-14T22:10:36.469Z,14.27
2023-05-14T22:15:42.156Z,14.24
2023-05-14T22:20:45.639Z,14.21
2023-05-14T22:25:48.993Z,14.17
2023-05-14T22:30:54.402Z,14.13
2023-05-14T22:35:57.474Z,14.08
2023-05-14T22:41:00.361Z,14.01
2023-05-14T22:46:03.586Z,13.95
2023-05-14T22:51:06.359Z,13.88
2023-05-14T22:56:09.209Z,13.82
2023-05-14T23:01:12.088Z,13.73
2023-05-14T23:06:15.058Z,13.63
2023-05-14T23:11:17.836Z,13.53
2023-05-14T23:16:20.933Z,13.44
2023-05-14T23:21:23.848Z,13.34
2023-05-14T23:26:26.884Z,13.24
2023-05-14T23:31:29.757Z,13.15
2023-05-14T23:36:32.675Z,13.06
2023-05-14T23:41:35.553Z,12.98
2023-05-14T23:46:38.483Z,12.92
2023-05-14T23:51:41.370Z,12.87
2023-05-14T23:56:44.361Z,12.81
